Terminal Aerodrome Forecast
Issued by NWS Central Illinois

Home | Current Version | Previous Version | Text Only | Print | Product List | Glossary On
Versions: 1 2 3 4 5 6 7 8 9 10 11 12 13
000
FTUS43 KILX 011700 RRA
TAFSPI
TAF
KSPI 011746Z 0118/0218 VRB06KT 1SM -RASN BR OVC005
     FM011900 VRB05KT 4SM BR VCSH OVC005
     FM012100 35012KT 3SM -SN OVC008
     FM020000 33018G28KT 3SM -SN OVC015
     FM020600 33020G28KT P6SM OVC015
     FM021500 32010KT P6SM SCT020=

USA.gov is the U.S. government's official web portal to all federal, state and local government web resources and services.